Time;durP1;ratioP1;P1;durP2;ratioP2;P2;SDS_P1;SDS_P2;PMS_P1;PMS_P2;Temp;Humidity;BMP_temperature;BMP_pressure;BME280_temperature;BME280_humidity;BME280_pressure;Samples;Min_cycle;Max_cycle;Signal;HPM_P1;HPM_P2
2023/03/27 00:01:20;;;;;;;1.47;1.37;;;;;;;4.71;100.00;94921.75;5046423;28;20981;-79
2023/03/27 00:03:49;;;;;;;2.20;1.57;;;;;;;4.69;100.00;94916.81;5041948;28;20439;-79
2023/03/27 00:06:18;;;;;;;3.17;1.73;;;;;;;4.55;100.00;94895.41;5063090;28;20468;-78
2023/03/27 00:08:49;;;;;;;1.70;1.60;;;;;;;4.68;100.00;94912.69;5051527;28;20470;-79
2023/03/27 00:11:20;;;;;;;3.50;1.63;;;;;;;4.69;100.00;94924.69;5047858;28;20459;-78
2023/03/27 00:13:48;;;;;;;1.70;1.40;;;;;;;4.50;100.00;94895.59;5040772;28;20436;-79
2023/03/27 00:16:22;;;;;;;2.20;1.43;;;;;;;4.72;100.00;94926.66;5071617;28;20542;-78
2023/03/27 00:18:50;;;;;;;1.50;1.40;;;;;;;4.63;100.00;94910.25;5043524;28;20443;-77
2023/03/27 00:21:16;;;;;;;2.00;1.30;;;;;;;4.62;100.00;94905.34;5059335;28;20522;-78
2023/03/27 00:23:43;;;;;;;3.53;1.53;;;;;;;4.29;100.00;94889.66;5065221;28;20878;-78
2023/03/27 00:26:10;;;;;;;2.80;1.50;;;;;;;4.43;100.00;94911.84;5047628;28;20443;-77
2023/03/27 00:28:38;;;;;;;1.70;1.43;;;;;;;4.44;100.00;94889.81;5065137;28;20959;-77
2023/03/27 00:31:10;;;;;;;1.20;1.10;;;;;;;4.56;100.00;94917.13;5066889;28;20465;-78
2023/03/27 00:33:37;;;;;;;2.47;1.80;;;;;;;4.50;100.00;94898.22;5060244;28;20471;-78
2023/03/27 00:36:04;;;;;;;1.23;1.13;;;;;;;4.67;100.00;94921.63;5058928;28;20509;-78
2023/03/27 00:38:32;;;;;;;1.50;1.20;;;;;;;4.57;100.00;94906.31;5046330;28;20433;-78
2023/03/27 00:41:00;;;;;;;2.23;1.63;;;;;;;4.70;100.00;94920.97;5050646;28;20970;-78
2023/03/27 00:43:33;;;;;;;1.93;1.50;;;;;;;4.36;100.00;94869.72;5058956;28;20444;-78
2023/03/27 00:46:04;;;;;;;1.93;1.53;;;;;;;4.61;100.00;94920.28;5049079;28;20429;-78
2023/03/27 00:48:35;;;;;;;1.30;1.20;;;;;;;4.18;100.00;94881.44;5050055;28;20520;-78
2023/03/27 00:51:04;;;;;;;1.10;1.00;;;;;;;4.45;100.00;94919.34;5058637;28;20866;-78
2023/03/27 00:53:35;;;;;;;2.40;2.10;;;;;;;4.61;100.00;94917.66;5053663;28;20432;-78
2023/03/27 00:56:04;;;;;;;1.70;1.60;;;;;;;4.57;100.00;94919.41;5051623;28;20448;-78
2023/03/27 00:58:36;;;;;;;1.67;1.57;;;;;;;4.63;100.00;94925.19;5063434;28;20421;-76
2023/03/27 01:01:02;;;;;;;1.70;1.33;;;;;;;4.19;100.00;94869.09;5064566;28;20444;-78
2023/03/27 01:03:31;;;;;;;1.20;1.10;;;;;;;4.58;100.00;94910.47;5051271;28;20922;-78
2023/03/27 01:06:02;;;;;;;1.10;1.00;;;;;;;4.65;100.00;94915.16;5059927;28;20501;-78
2023/03/27 01:08:32;;;;;;;1.67;1.57;;;;;;;4.27;100.00;94889.94;5057309;28;20456;-78
2023/03/27 01:11:11;;;;;;;1.73;1.37;;;;;;;4.33;100.00;94903.59;5049588;28;20487;-78
2023/03/27 01:13:56;;;;;;;1.17;1.07;;;;;;;4.31;100.00;94903.94;5076724;28;20412;-78
2023/03/27 01:16:36;;;;;;;1.50;1.40;;;;;;;3.93;100.00;94858.84;5065026;28;20488;-78
2023/03/27 01:19:34;;;;;;;1.87;1.40;;;;;;;4.13;100.00;94895.44;5077649;28;20478;-78
2023/03/27 01:22:22;;;;;;;2.40;1.30;;;;;;;4.07;100.00;94901.19;5063344;28;20539;-78
2023/03/27 01:25:11;;;;;;;1.67;1.57;;;;;;;4.03;100.00;94902.94;5044135;28;20945;-78
2023/03/27 01:28:13;;;;;;;1.53;1.43;;;;;;;3.92;100.00;94907.75;5058033;28;20424;-78
2023/03/27 01:30:55;;;;;;;1.57;1.43;;;;;;;3.96;100.00;94902.66;5066659;28;20451;-78
2023/03/27 01:33:40;;;;;;;1.30;1.20;;;;;;;3.85;100.00;94913.47;5053985;28;20805;-77
2023/03/27 01:36:22;;;;;;;1.60;1.50;;;;;;;3.77;100.00;94903.09;5055286;28;20431;-78
2023/03/27 01:39:14;;;;;;;1.27;1.17;;;;;;;3.68;100.00;94905.75;5063501;28;20429;-77
2023/03/27 01:42:04;;;;;;;1.30;1.20;;;;;;;3.41;100.00;94875.63;5053683;28;21048;-77
2023/03/27 01:44:35;;;;;;;1.30;1.20;;;;;;;3.60;100.00;94911.03;5039343;28;20467;-77
2023/03/27 01:47:18;;;;;;;1.27;1.20;;;;;;;3.49;100.00;94916.63;5067497;28;20436;-77
2023/03/27 01:49:53;;;;;;;1.50;1.40;;;;;;;3.50;100.00;94933.06;5039886;28;20435;-77
2023/03/27 01:52:30;;;;;;;1.27;1.10;;;;;;;3.43;100.00;94925.72;5077636;28;20839;-77
2023/03/27 01:55:02;;;;;;;1.50;1.40;;;;;;;3.44;100.00;94932.47;5075559;28;20461;-77
2023/03/27 01:57:44;;;;;;;3.13;1.30;;;;;;;3.06;100.00;94887.31;5060256;28;20470;-77
2023/03/27 02:00:21;;;;;;;1.20;1.10;;;;;;;3.44;100.00;94936.94;5047180;28;20485;-77
2023/03/27 02:02:55;;;;;;;1.00;0.90;;;;;;;3.32;100.00;94937.59;5053518;28;20467;-77
2023/03/27 02:05:35;;;;;;;0.90;0.90;;;;;;;3.10;100.00;94919.56;5070285;28;20461;-77
2023/03/27 02:08:28;;;;;;;0.80;0.80;;;;;;;2.78;100.00;94892.16;5069364;28;20441;-77
2023/03/27 02:11:04;;;;;;;0.70;0.70;;;;;;;2.96;100.00;94945.88;5049843;28;20471;-77
2023/03/27 02:13:38;;;;;;;0.70;0.70;;;;;;;2.91;100.00;94952.00;5050064;28;20440;-77
2023/03/27 02:16:08;;;;;;;0.70;0.70;;;;;;;2.65;100.00;94915.53;5057338;28;20463;-77
2023/03/27 02:18:44;;;;;;;0.80;0.80;;;;;;;2.93;100.00;94989.00;5059471;28;20440;-78
2023/03/27 02:21:14;;;;;;;0.80;0.80;;;;;;;2.65;100.00;94957.28;5053140;28;20447;-78
2023/03/27 02:23:43;;;;;;;0.80;0.80;;;;;;;2.92;100.00;95008.34;5061833;28;20436;-78
2023/03/27 02:26:12;;;;;;;0.80;0.80;;;;;;;2.73;100.00;94991.50;5063724;28;20433;-78
2023/03/27 02:29:11;;;;;;;0.70;0.70;;;;;;;2.49;100.00;94977.09;5044257;28;20441;-78
2023/03/27 02:32:12;;;;;;;0.80;0.80;;;;;;;2.84;100.00;95031.88;5053498;28;20461;-78
2023/03/27 02:34:39;;;;;;;0.93;0.80;;;;;;;2.68;100.00;95044.63;5072277;28;20443;-78
2023/03/27 02:37:24;;;;;;;0.70;0.60;;;;;;;2.58;100.00;95043.06;5060014;28;20570;-77
2023/03/27 02:40:40;;;;;;;0.70;0.70;;;;;;;2.58;100.00;95050.91;5094104;28;20466;-77
2023/03/27 02:44:04;;;;;;;0.70;0.70;;;;;;;2.34;100.00;95038.28;5072772;28;20428;-77
2023/03/27 02:46:59;;;;;;;1.00;0.80;;;;;;;2.30;100.00;95045.19;5069262;28;20443;-78
2023/03/27 02:49:36;;;;;;;0.90;0.90;;;;;;;2.16;100.00;95031.53;5061992;28;20959;-78
2023/03/27 02:52:12;;;;;;;0.87;0.87;;;;;;;2.28;100.00;95052.56;5063158;28;20450;-78
2023/03/27 02:54:52;;;;;;;1.00;0.80;;;;;;;2.42;100.00;95103.81;5051181;28;20489;-78
2023/03/27 02:57:25;;;;;;;0.97;0.97;;;;;;;2.09;100.00;95096.34;5058241;28;20470;-78
2023/03/27 03:00:24;;;;;;;1.03;0.93;;;;;;;2.05;100.00;95088.38;5051111;28;20449;-78
2023/03/27 03:03:27;;;;;;;1.40;1.07;;;;;;;2.05;100.00;95130.09;5065045;28;20952;-77
2023/03/27 03:06:06;;;;;;;2.87;1.20;;;;;;;1.83;100.00;95113.72;5040691;28;20456;-78
2023/03/27 03:08:37;;;;;;;2.67;1.23;;;;;;;1.95;100.00;95147.81;5069375;28;20952;-78
2023/03/27 03:11:10;;;;;;;2.70;1.20;;;;;;;1.71;100.00;95114.28;5048956;28;20491;-78
2023/03/27 03:13:38;;;;;;;2.90;1.30;;;;;;;1.96;100.00;95167.59;5023242;28;21028;-77
2023/03/27 03:16:05;;;;;;;1.17;1.07;;;;;;;1.67;100.00;95118.56;5052391;28;20436;-78
2023/03/27 03:18:32;;;;;;;5.67;1.47;;;;;;;1.99;100.00;95169.59;5056770;28;20886;-77
2023/03/27 03:20:59;;;;;;;1.53;1.30;;;;;;;1.67;100.00;95142.00;5042051;28;20465;-77
2023/03/27 03:23:26;;;;;;;1.40;1.30;;;;;;;1.86;100.00;95184.25;5041136;28;20437;-78
2023/03/27 03:25:55;;;;;;;3.37;1.10;;;;;;;1.71;100.00;95174.19;5034768;28;20437;-78
2023/03/27 03:28:26;;;;;;;4.13;1.67;;;;;;;1.53;100.00;95146.53;5030884;28;20436;-78
2023/03/27 03:30:53;;;;;;;1.97;1.73;;;;;;;1.92;100.00;95216.94;5047519;28;20519;-77
2023/03/27 03:33:20;;;;;;;2.07;1.93;;;;;;;1.60;100.00;95189.28;5038182;28;20523;-77
2023/03/27 03:35:49;;;;;;;1.50;1.40;;;;;;;1.68;100.00;95198.25;5072153;28;20428;-77
2023/03/27 03:38:28;;;;;;;1.60;1.50;;;;;;;1.54;100.00;95174.88;5039118;28;20538;-77
2023/03/27 03:41:06;;;;;;;3.17;1.87;;;;;;;1.76;100.00;95213.19;5039197;28;20880;-77
2023/03/27 03:43:34;;;;;;;1.60;1.50;;;;;;;1.60;100.00;95206.75;5061691;28;20436;-77
2023/03/27 03:46:01;;;;;;;2.50;1.70;;;;;;;1.49;100.00;95198.44;5048713;28;20435;-77
2023/03/27 03:48:28;;;;;;;2.90;1.73;;;;;;;1.51;100.00;95232.75;5062403;28;20409;-77
2023/03/27 03:50:55;;;;;;;2.00;1.90;;;;;;;1.51;100.00;95224.94;5054977;28;20451;-77
2023/03/27 03:53:22;;;;;;;1.80;1.70;;;;;;;1.49;100.00;95234.91;5057580;28;20526;-77
2023/03/27 03:55:52;;;;;;;3.53;1.80;;;;;;;1.62;100.00;95274.97;5069869;28;20420;-77
2023/03/27 03:58:19;;;;;;;3.80;1.80;;;;;;;1.62;100.00;95282.78;5072148;28;20444;-77
2023/03/27 04:01:02;;;;;;;2.03;1.80;;;;;;;1.45;100.00;95259.97;5048986;28;20448;-78
2023/03/27 04:03:49;;;;;;;1.40;1.30;;;;;;;1.45;100.00;95273.75;5043652;28;20451;-78
2023/03/27 04:06:19;;;;;;;2.40;1.63;;;;;;;1.67;100.00;95299.06;5055145;28;20799;-78
2023/03/27 04:08:47;;;;;;;6.93;2.13;;;;;;;1.55;100.00;95290.22;5063142;28;20453;-78
2023/03/27 04:11:32;;;;;;;1.93;1.77;;;;;;;1.45;100.00;95286.00;5053500;28;20578;-78
2023/03/27 04:14:08;;;;;;;2.10;1.63;;;;;;;1.36;100.00;95287.78;5065899;28;20435;-77
2023/03/27 04:16:40;;;;;;;2.50;2.30;;;;;;;1.16;100.00;95273.34;5049205;28;20515;-78
2023/03/27 04:19:25;;;;;;;1.63;1.27;;;;;;;1.27;100.00;95308.53;5047800;28;20440;-78
2023/03/27 04:22:01;;;;;;;1.30;1.20;;;;;;;1.35;100.00;95335.72;5036246;28;20460;-78
2023/03/27 04:24:30;;;;;;;1.40;1.30;;;;;;;1.16;100.00;95300.13;5046770;28;20424;-78
2023/03/27 04:27:00;;;;;;;2.57;1.60;;;;;;;1.16;100.00;95320.19;5050207;28;20523;-77
2023/03/27 04:29:42;;;;;;;3.23;2.73;;;;;;;1.17;100.00;95329.53;5054792;28;20964;-78
2023/03/27 04:32:28;;;;;;;2.90;1.80;;;;;;;0.84;100.00;95293.22;5073089;28;20439;-77
2023/03/27 04:35:14;;;;;;;1.87;1.77;;;;;;;1.19;100.00;95351.59;5061095;28;20443;-78
2023/03/27 04:37:47;;;;;;;1.93;1.67;;;;;;;1.25;100.00;95367.16;5041998;28;20556;-78
2023/03/27 04:40:29;;;;;;;1.87;1.73;;;;;;;0.94;100.00;95338.34;5054497;28;20509;-78
2023/03/27 04:42:56;;;;;;;2.13;1.97;;;;;;;1.01;100.00;95357.69;5054758;28;20509;-78
2023/03/27 04:45:24;;;;;;;3.80;2.60;;;;;;;1.04;100.00;95380.53;5063828;28;20432;-77
2023/03/27 04:47:53;;;;;;;4.03;2.50;;;;;;;1.07;100.00;95398.19;5034954;28;20472;-78
2023/03/27 04:50:20;;;;;;;4.90;4.40;;;;;;;0.78;100.00;95367.22;5048195;28;20491;-77
2023/03/27 04:52:47;;;;;;;2.10;2.00;;;;;;;0.85;100.00;95383.22;5038343;28;20963;-78
2023/03/27 04:55:18;;;;;;;2.97;1.90;;;;;;;0.74;100.00;95374.06;5038543;28;20501;-78
2023/03/27 04:57:48;;;;;;;2.87;2.57;;;;;;;0.86;100.00;95386.59;5050538;28;20487;-78
2023/03/27 05:00:17;;;;;;;2.40;2.13;;;;;;;1.06;100.00;95433.06;5054070;28;20543;-77
2023/03/27 05:02:51;;;;;;;3.10;2.80;;;;;;;1.06;100.00;95438.25;5072680;28;20985;-78
2023/03/27 05:05:26;;;;;;;2.20;2.10;;;;;;;0.99;100.00;95453.50;5054649;28;20437;-78
2023/03/27 05:07:54;;;;;;;2.80;2.60;;;;;;;0.99;100.00;95456.09;5046343;28;20468;-78
2023/03/27 05:10:23;;;;;;;3.60;3.20;;;;;;;0.91;100.00;95445.56;5055506;28;20555;-78
2023/03/27 05:12:52;;;;;;;2.93;2.60;;;;;;;1.08;100.00;95475.22;5063405;28;20440;-78
2023/03/27 05:15:21;;;;;;;2.33;2.10;;;;;;;0.95;100.00;95449.16;5032004;28;20890;-78
2023/03/27 05:17:54;;;;;;;2.30;2.10;;;;;;;0.84;100.00;95454.53;5058214;28;20596;-78
2023/03/27 05:20:24;;;;;;;2.80;2.60;;;;;;;1.05;100.00;95495.81;5074336;28;20459;-78
2023/03/27 05:22:57;;;;;;;3.30;2.83;;;;;;;0.41;100.00;95396.72;5074724;28;20846;-78
2023/03/27 05:25:26;;;;;;;4.03;2.80;;;;;;;1.07;100.00;95502.28;5058190;28;20431;-78
2023/03/27 05:27:54;;;;;;;3.63;3.20;;;;;;;0.88;100.00;95478.13;5057990;28;20802;-78
2023/03/27 05:30:25;;;;;;;2.50;2.30;;;;;;;0.77;100.00;95485.31;5054206;28;20548;-78
2023/03/27 05:33:31;;;;;;;3.27;3.07;;;;;;;0.72;100.00;95498.41;5063522;28;20424;-78
2023/03/27 05:35:57;;;;;;;3.33;3.07;;;;;;;0.63;100.00;95488.94;5070225;28;20428;-78
2023/03/27 05:38:25;;;;;;;2.80;2.60;;;;;;;0.53;100.00;95511.41;5057980;28;20541;-78
2023/03/27 05:41:21;;;;;;;4.33;3.93;;;;;;;0.48;100.00;95508.91;5060946;28;20480;-77
2023/03/27 05:43:50;;;;;;;4.73;4.40;;;;;;;0.58;100.00;95554.81;5037473;28;20465;-77
2023/03/27 05:46:19;;;;;;;4.27;3.83;;;;;;;0.46;100.00;95542.22;5051446;28;20446;-77
2023/03/27 05:48:58;;;;;;;3.43;3.13;;;;;;;0.45;100.00;95532.88;5061751;28;20439;-78
2023/03/27 05:51:26;;;;;;;2.87;2.60;;;;;;;0.67;100.00;95553.13;5048803;28;20826;-78
2023/03/27 05:53:53;;;;;;;3.40;3.10;;;;;;;0.78;100.00;95566.72;5052728;28;20445;-78
2023/03/27 05:56:23;;;;;;;3.00;2.63;;;;;;;0.57;100.00;95540.25;5057533;28;20467;-78
2023/03/27 05:58:53;;;;;;;3.13;2.60;;;;;;;0.78;100.00;95531.09;5041441;28;20467;-78
2023/03/27 06:01:21;;;;;;;3.60;2.70;;;;;;;0.81;100.00;95543.56;5054460;28;20564;-78
2023/03/27 06:03:54;;;;;;;3.00;2.70;;;;;;;0.74;100.00;95542.34;5048610;28;20495;-78
2023/03/27 06:06:34;;;;;;;3.23;2.80;;;;;;;1.04;100.00;95585.34;5051671;28;20520;-77
2023/03/27 06:09:02;;;;;;;2.80;2.60;;;;;;;0.99;100.00;95583.59;5053914;28;20437;-78
2023/03/27 06:11:30;;;;;;;2.60;2.40;;;;;;;1.06;100.00;95597.03;5069518;28;20960;-78
2023/03/27 06:13:57;;;;;;;3.60;2.43;;;;;;;1.18;100.00;95605.16;5057329;28;20436;-77
2023/03/27 06:16:39;;;;;;;4.03;2.50;;;;;;;0.85;100.00;95565.34;5053529;28;20446;-77
2023/03/27 06:19:28;;;;;;;2.73;2.50;;;;;;;1.02;100.00;95601.25;5068247;28;20627;-78
2023/03/27 06:21:55;;;;;;;4.90;2.47;;;;;;;1.09;100.00;95617.28;5053595;28;20449;-77
2023/03/27 06:24:22;;;;;;;3.07;2.67;;;;;;;1.08;100.00;95605.34;5068644;28;20452;-78
2023/03/27 06:26:49;;;;;;;3.07;2.47;;;;;;;0.98;100.00;95596.91;5075187;28;20424;-78
2023/03/27 06:29:16;;;;;;;4.83;2.93;;;;;;;0.81;100.00;95587.78;5036846;28;20521;-77
2023/03/27 06:31:48;;;;;;;4.00;2.90;;;;;;;0.50;100.00;95553.59;5056502;28;21027;-78
2023/03/27 06:34:23;;;;;;;3.67;2.90;;;;;;;0.94;100.00;95625.31;5052024;28;20447;-77
2023/03/27 06:37:04;;;;;;;3.40;2.47;;;;;;;1.08;100.00;95646.22;5053850;28;20449;-77
2023/03/27 06:39:38;;;;;;;2.97;2.47;;;;;;;-0.08;100.00;95475.88;5056917;28;21013;-77
2023/03/27 06:42:05;;;;;;;6.40;3.00;;;;;;;0.83;100.00;95640.28;5063636;28;20448;-78
2023/03/27 06:44:51;;;;;;;3.00;2.80;;;;;;;0.92;100.00;95645.63;5059078;28;20435;-78
2023/03/27 06:47:52;;;;;;;4.23;3.77;;;;;;;1.02;100.00;95649.94;5059708;28;20937;-78
2023/03/27 06:50:38;;;;;;;6.50;3.30;;;;;;;1.26;100.00;95684.47;5046836;28;20540;-78
2023/03/27 06:53:05;;;;;;;3.70;2.87;;;;;;;1.18;100.00;95698.88;5056244;28;20481;-78
2023/03/27 06:55:50;;;;;;;5.33;3.13;;;;;;;1.28;100.00;95697.19;5057573;28;20514;-78
2023/03/27 06:58:17;;;;;;;5.10;3.00;;;;;;;1.37;100.00;95705.94;5052221;28;20517;-78
2023/03/27 07:00:47;;;;;;;5.03;4.10;;;;;;;0.90;100.00;95660.75;5029914;28;20448;-78
2023/03/27 07:03:20;;;;;;;3.80;3.10;;;;;;;1.25;100.00;95702.97;5074115;28;20427;-78
2023/03/27 07:05:47;;;;;;;12.33;3.13;;;;;;;1.35;100.00;95723.66;5056227;28;21025;-78
2023/03/27 07:08:17;;;;;;;3.93;3.53;;;;;;;1.39;100.00;95746.25;5037619;28;20438;-78
2023/03/27 07:10:53;;;;;;;5.33;3.87;;;;;;;1.15;100.00;95733.28;5050925;28;20550;-78
2023/03/27 07:13:23;;;;;;;4.50;2.67;;;;;;;1.27;100.00;95716.47;5036987;28;20509;-78
2023/03/27 07:15:50;;;;;;;4.57;3.00;;;;;;;1.29;100.00;95735.97;5043516;28;20529;-78
2023/03/27 07:18:20;;;;;;;3.33;3.03;;;;;;;1.25;100.00;95753.22;5053915;28;20537;-78
2023/03/27 07:20:49;;;;;;;3.07;2.43;;;;;;;1.08;100.00;95735.47;5056562;28;20467;-78
2023/03/27 07:23:20;;;;;;;4.97;2.90;;;;;;;1.27;100.00;95778.97;5055248;28;20446;-78
2023/03/27 07:26:15;;;;;;;3.00;2.63;;;;;;;1.11;100.00;95750.53;5075218;28;20448;-78
2023/03/27 07:29:09;;;;;;;3.30;3.10;;;;;;;1.32;100.00;95778.88;5078362;28;20440;-78
2023/03/27 07:31:37;;;;;;;3.27;2.97;;;;;;;1.41;100.00;95772.78;5047480;28;20456;-78
2023/03/27 07:34:09;;;;;;;4.30;4.00;;;;;;;1.99;100.00;95785.47;5060562;28;20439;-78
2023/03/27 07:36:56;;;;;;;3.13;2.80;;;;;;;1.93;100.00;95784.03;5066991;28;20444;-78
2023/03/27 07:39:24;;;;;;;3.40;2.90;;;;;;;2.47;100.00;95815.78;5047471;28;20473;-78
2023/03/27 07:41:51;;;;;;;4.23;2.67;;;;;;;2.45;100.00;95765.72;5048057;28;20472;-79
2023/03/27 07:44:29;;;;;;;2.37;2.17;;;;;;;2.45;100.00;95779.53;5028448;28;20458;-78
2023/03/27 07:47:03;;;;;;;1.97;1.87;;;;;;;2.71;100.00;95792.13;5053620;28;20456;-78
2023/03/27 07:49:30;;;;;;;2.40;2.20;;;;;;;2.79;100.00;95836.59;5075744;28;20428;-79
2023/03/27 07:52:11;;;;;;;3.60;2.40;;;;;;;2.55;100.00;95781.97;5043616;28;20455;-79
2023/03/27 07:54:48;;;;;;;2.40;2.20;;;;;;;2.20;100.00;95814.63;5063878;28;20489;-79
2023/03/27 07:57:18;;;;;;;2.90;2.43;;;;;;;2.40;100.00;95838.84;5049908;28;20449;-78
2023/03/27 07:59:48;;;;;;;2.93;2.40;;;;;;;2.53;100.00;95832.88;5050137;28;20467;-79
2023/03/27 08:02:23;;;;;;;2.10;2.00;;;;;;;2.52;100.00;95845.16;5069193;28;21003;-78
2023/03/27 08:04:51;;;;;;;2.17;1.97;;;;;;;2.96;100.00;95865.53;5055099;28;20831;-79
2023/03/27 08:07:20;;;;;;;1.87;1.77;;;;;;;2.64;100.00;95873.41;5042720;28;20445;-78
2023/03/27 08:09:47;;;;;;;1.93;1.83;;;;;;;2.50;100.00;95870.75;5049489;28;20440;-79
2023/03/27 08:12:14;;;;;;;2.30;1.67;;;;;;;2.80;100.00;95871.31;5059405;28;20478;-78
2023/03/27 08:14:53;;;;;;;3.27;2.20;;;;;;;2.81;100.00;95881.47;5046753;28;20488;-79
2023/03/27 08:17:26;;;;;;;2.40;1.90;;;;;;;2.58;100.00;95877.94;5050438;28;20444;-79
2023/03/27 08:19:54;;;;;;;3.73;3.03;;;;;;;2.89;100.00;95903.53;5049198;28;20467;-78
2023/03/27 08:22:23;;;;;;;2.03;1.83;;;;;;;2.30;100.00;95918.03;5060486;28;20449;-79
2023/03/27 08:25:17;;;;;;;2.80;2.50;;;;;;;1.52;100.00;95893.25;5037530;28;20425;-78
2023/03/27 08:27:44;;;;;;;5.73;2.20;;;;;;;1.45;100.00;95895.41;5047811;28;20443;-79
2023/03/27 08:30:13;;;;;;;2.13;1.93;;;;;;;1.65;100.00;95928.25;5047989;28;20560;-78
2023/03/27 08:32:43;;;;;;;2.13;2.00;;;;;;;1.36;100.00;95871.81;5069830;28;20431;-79
2023/03/27 08:35:10;;;;;;;2.33;2.13;;;;;;;1.57;100.00;95928.88;5060333;28;20816;-78
2023/03/27 08:37:40;;;;;;;5.07;2.23;;;;;;;1.56;100.00;95922.88;5056168;28;20520;-79
2023/03/27 08:40:28;;;;;;;2.87;2.17;;;;;;;2.39;100.00;95960.66;5055963;28;20450;-78
2023/03/27 08:43:29;;;;;;;2.30;2.20;;;;;;;2.08;100.00;95973.34;5036917;28;20433;-79
2023/03/27 08:46:04;;;;;;;1.83;1.73;;;;;;;2.62;100.00;95980.69;5040106;28;20466;-79
2023/03/27 08:48:46;;;;;;;2.83;2.63;;;;;;;2.75;100.00;95968.75;5044275;28;20429;-79
2023/03/27 08:51:21;;;;;;;2.30;2.10;;;;;;;2.31;100.00;95951.66;5053151;28;20457;-79
2023/03/27 08:54:00;;;;;;;2.00;1.80;;;;;;;2.53;100.00;95987.59;5062855;28;20432;-79
2023/03/27 08:56:29;;;;;;;2.70;2.27;;;;;;;2.05;100.00;95987.72;5062977;28;20527;-79
2023/03/27 08:58:56;;;;;;;2.70;1.27;;;;;;;1.68;100.00;95946.72;5059187;28;21099;-78
2023/03/27 09:01:35;;;;;;;2.00;1.80;;;;;;;2.17;100.00;96004.78;5064854;28;21068;-78
2023/03/27 09:04:23;;;;;;;1.97;1.67;;;;;;;2.29;100.00;95969.41;5046507;28;20432;-78
2023/03/27 09:07:04;;;;;;;1.43;1.10;;;;;;;2.67;100.00;96001.50;5044114;28;20821;-78
2023/03/27 09:09:46;;;;;;;1.83;1.73;;;;;;;2.80;100.00;96023.47;5049580;28;20853;-78
2023/03/27 09:12:16;;;;;;;1.83;1.60;;;;;;;2.28;100.00;96017.41;5057267;28;20452;-79
2023/03/27 09:14:55;;;;;;;2.73;1.70;;;;;;;2.17;100.00;95924.72;5036038;28;20433;-79
2023/03/27 09:18:00;;;;;;;1.47;1.10;;;;;;;2.77;100.00;96021.44;5061061;28;20443;-79
2023/03/27 09:20:43;;;;;;;4.27;1.30;;;;;;;2.94;100.00;96003.44;5069284;28;20467;-79
2023/03/27 09:23:17;;;;;;;2.40;1.30;;;;;;;2.78;100.00;96037.88;5063395;28;20519;-79
2023/03/27 09:26:11;;;;;;;1.33;1.23;;;;;;;2.18;100.00;96040.25;5069585;28;20415;-79
2023/03/27 09:29:16;;;;;;;2.73;1.17;;;;;;;2.37;100.00;96059.28;5052360;28;20535;-78
2023/03/27 09:31:51;;;;;;;1.50;1.40;;;;;;;1.78;100.00;96042.25;5070850;28;20451;-78
2023/03/27 09:34:27;;;;;;;3.63;1.50;;;;;;;2.13;100.00;96020.19;5069810;28;20467;-78
2023/03/27 09:36:57;;;;;;;1.77;1.50;;;;;;;2.12;100.00;96049.16;5048518;28;20476;-78
2023/03/27 09:39:34;;;;;;;1.67;1.23;;;;;;;1.86;100.00;96046.81;5043583;28;20460;-78
2023/03/27 09:42:38;;;;;;;3.07;1.27;;;;;;;2.16;100.00;96081.47;5077200;28;20470;-78
2023/03/27 09:45:08;;;;;;;1.90;1.30;;;;;;;2.32;100.00;96091.44;5034747;28;20482;-78
2023/03/27 09:48:01;;;;;;;5.43;2.10;;;;;;;2.26;100.00;96089.94;5043318;28;20432;-79
2023/03/27 09:50:45;;;;;;;1.33;1.23;;;;;;;2.24;100.00;96089.44;5057299;28;20832;-78
2023/03/27 09:53:34;;;;;;;2.70;1.83;;;;;;;2.65;100.00;96088.94;5058747;28;20805;-78
2023/03/27 09:56:16;;;;;;;3.60;1.27;;;;;;;2.29;100.00;96047.66;5052162;28;20436;-79
2023/03/27 09:58:52;;;;;;;2.50;1.53;;;;;;;2.05;100.00;96070.38;5060689;28;20470;-78
2023/03/27 10:01:29;;;;;;;4.47;1.60;;;;;;;2.15;100.00;96104.16;5041122;28;20534;-78
2023/03/27 10:04:13;;;;;;;8.27;1.50;;;;;;;2.03;100.00;96098.53;5031844;28;20432;-77
2023/03/27 10:06:47;;;;;;;1.47;1.37;;;;;;;1.76;100.00;96105.06;5044643;28;20531;-77
2023/03/27 10:09:34;;;;;;;1.43;1.13;;;;;;;1.88;100.00;96099.47;5064426;28;20440;-77
2023/03/27 10:12:06;;;;;;;2.17;1.27;;;;;;;2.23;100.00;96102.75;5036206;28;20467;-77
2023/03/27 10:14:46;;;;;;;1.77;1.10;;;;;;;2.61;100.00;96104.38;5048537;28;20437;-77
2023/03/27 10:17:28;;;;;;;1.80;1.33;;;;;;;2.72;100.00;96115.47;5036076;28;20968;-77
2023/03/27 10:20:15;;;;;;;1.40;1.10;;;;;;;2.65;100.00;96096.75;5058163;28;20569;-77
2023/03/27 10:22:58;;;;;;;3.77;1.60;;;;;;;2.53;99.66;96076.28;5067098;28;20490;-76
2023/03/27 10:25:37;;;;;;;1.63;1.43;;;;;;;3.22;99.43;96111.41;5075709;28;20439;-76
2023/03/27 10:28:26;;;;;;;4.53;1.50;;;;;;;2.37;96.89;96073.09;5038544;28;20528;-76
2023/03/27 10:31:29;;;;;;;1.40;1.30;;;;;;;2.53;100.00;96118.03;5037505;28;20491;-76
2023/03/27 10:34:35;;;;;;;1.50;1.20;;;;;;;2.09;100.00;96136.53;5074819;28;20442;-76
2023/03/27 10:37:34;;;;;;;1.80;1.17;;;;;;;1.78;100.00;96118.59;5043580;28;20436;-76
2023/03/27 10:40:33;;;;;;;2.80;1.50;;;;;;;1.88;100.00;96111.75;5061654;28;20483;-76
2023/03/27 10:43:15;;;;;;;1.53;1.23;;;;;;;2.16;100.00;96133.63;5064159;28;20978;-75
2023/03/27 10:45:58;;;;;;;17.70;1.73;;;;;;;2.30;100.00;96130.06;5050163;28;20946;-75
2023/03/27 10:48:47;;;;;;;1.63;1.47;;;;;;;2.75;100.00;96119.34;5059114;28;20814;-76
2023/03/27 10:51:27;;;;;;;4.17;2.07;;;;;;;2.93;100.00;96131.63;5039106;28;20452;-76
2023/03/27 10:54:15;;;;;;;4.10;1.80;;;;;;;3.37;100.00;96139.13;5051884;28;20459;-76
2023/03/27 10:57:14;;;;;;;1.77;1.40;;;;;;;3.04;100.00;96140.13;5061607;28;20652;-76
2023/03/27 10:59:47;;;;;;;2.63;1.43;;;;;;;3.15;100.00;96103.13;5018832;28;20488;-76
2023/03/27 11:02:58;;;;;;;4.40;1.20;;;;;;;2.77;100.00;96138.91;5041519;28;20450;-76
2023/03/27 11:05:32;;;;;;;3.33;1.53;;;;;;;2.53;100.00;96143.34;5031143;28;20439;-76
2023/03/27 11:08:14;;;;;;;1.43;1.33;;;;;;;2.36;100.00;96115.91;5039527;28;20546;-75
2023/03/27 11:10:45;;;;;;;1.47;1.37;;;;;;;2.30;100.00;96156.16;5059037;28;20463;-76
2023/03/27 11:13:26;;;;;;;7.07;2.17;;;;;;;2.57;100.00;96126.88;5067426;28;20454;-76
2023/03/27 11:16:22;;;;;;;1.60;1.47;;;;;;;3.37;100.00;96146.97;5063706;28;20470;-76
2023/03/27 11:19:10;;;;;;;1.47;1.20;;;;;;;3.41;100.00;96149.78;5062862;28;20821;-76
2023/03/27 11:22:09;;;;;;;5.03;1.10;;;;;;;3.40;97.51;96122.09;5060203;28;20495;-76
2023/03/27 11:25:04;;;;;;;2.60;1.47;;;;;;;3.04;93.62;96135.66;5054594;28;20782;-76
2023/03/27 11:27:38;;;;;;;5.90;1.30;;;;;;;3.68;83.21;96173.41;5044273;28;20496;-76
2023/03/27 11:30:13;;;;;;;1.50;1.37;;;;;;;4.43;82.24;96181.03;5054385;28;20510;-75
2023/03/27 11:33:17;;;;;;;2.83;1.57;;;;;;;4.92;85.61;96148.13;5054378;28;20474;-76
2023/03/27 11:35:50;;;;;;;2.23;1.47;;;;;;;4.24;80.88;96184.78;5064678;28;20437;-76
2023/03/27 11:39:29;;;;;;;3.03;1.73;;;;;;;3.78;80.97;96186.31;5062883;28;20446;-76
2023/03/27 11:42:01;;;;;;;1.07;0.97;;;;;;;3.78;82.94;96188.16;5022730;28;20869;-76
2023/03/27 11:44:30;;;;;;;1.50;1.07;;;;;;;3.67;80.04;96148.31;5066575;28;20523;-76
2023/03/27 11:47:06;;;;;;;3.10;1.33;;;;;;;4.01;77.28;96183.88;5072471;28;20424;-76
2023/03/27 11:50:07;;;;;;;2.20;1.70;;;;;;;3.40;78.53;96171.75;5041626;28;20436;-76
2023/03/27 11:52:42;;;;;;;1.30;1.20;;;;;;;3.39;80.58;96178.03;5051439;28;20531;-75
2023/03/27 11:55:22;;;;;;;2.67;1.50;;;;;;;3.25;83.92;96157.06;5057591;28;20432;-76
2023/03/27 11:58:04;;;;;;;2.00;1.40;;;;;;;3.44;86.24;96191.78;5031690;28;20432;-76
2023/03/27 12:00:57;;;;;;;2.43;1.63;;;;;;;3.99;86.64;96191.22;5043787;28;20475;-76
2023/03/27 12:03:51;;;;;;;4.90;1.50;;;;;;;4.67;85.58;96201.81;5040345;28;20525;-76
2023/03/27 12:06:45;;;;;;;3.10;2.10;;;;;;;4.70;80.66;96203.06;5045508;28;20466;-76
2023/03/27 12:09:22;;;;;;;3.53;1.77;;;;;;;4.86;80.91;96214.78;5048190;28;20482;-75
2023/03/27 12:12:52;;;;;;;5.80;1.30;;;;;;;4.05;87.01;96203.16;5060371;28;20428;-75
2023/03/27 12:15:46;;;;;;;3.00;1.83;;;;;;;4.73;88.27;96207.72;5040379;28;20428;-76
2023/03/27 12:18:32;;;;;;;1.30;1.10;;;;;;;3.63;89.22;96199.63;5057529;28;20528;-75
2023/03/27 12:21:20;;;;;;;5.03;1.87;;;;;;;3.42;87.20;96180.06;5060902;28;20888;-75
2023/03/27 12:24:06;;;;;;;3.80;1.60;;;;;;;5.00;84.23;96207.69;5059798;28;20432;-75